createdAt,value
2019-02-11T00:00:30.324Z,4.00
2019-02-11T00:02:59.767Z,4.00
2019-02-11T00:05:27.338Z,4.00
2019-02-11T00:07:54.838Z,4.00
2019-02-11T00:10:22.311Z,4.00
2019-02-11T00:12:49.832Z,4.00
2019-02-11T00:15:17.338Z,4.10
2019-02-11T00:17:44.876Z,4.00
2019-02-11T00:20:12.361Z,4.00
2019-02-11T00:22:39.851Z,4.00
2019-02-11T00:25:07.382Z,4.00
2019-02-11T00:27:34.942Z,4.00
2019-02-11T00:30:02.494Z,4.00
2019-02-11T00:32:31.181Z,4.00
2019-02-11T00:34:58.709Z,4.00
2019-02-11T00:37:26.292Z,4.00
2019-02-11T00:39:53.812Z,4.00
2019-02-11T00:42:21.344Z,4.00
2019-02-11T00:44:48.729Z,4.00
2019-02-11T00:47:16.265Z,4.00
2019-02-11T00:49:43.761Z,4.00
2019-02-11T00:52:11.241Z,4.00
2019-02-11T00:54:38.792Z,3.90
2019-02-11T00:57:06.373Z,3.90
2019-02-11T00:59:33.885Z,3.90
2019-02-11T01:02:01.239Z,3.90
2019-02-11T01:04:28.743Z,3.90
2019-02-11T01:06:56.239Z,3.90
2019-02-11T01:09:23.885Z,3.80
2019-02-11T01:11:51.365Z,3.80
2019-02-11T01:14:18.867Z,3.80
2019-02-11T01:16:46.475Z,3.90
2019-02-11T01:19:13.994Z,3.80
2019-02-11T01:21:41.523Z,3.80
2019-02-11T01:24:09.079Z,3.90
2019-02-11T01:26:36.557Z,3.90
2019-02-11T01:29:04.108Z,3.80
2019-02-11T01:31:31.615Z,3.90
2019-02-11T01:33:59.071Z,3.80
2019-02-11T01:36:26.797Z,3.90
2019-02-11T01:38:54.329Z,3.90
2019-02-11T01:41:21.810Z,3.90
2019-02-11T01:43:49.325Z,3.90
2019-02-11T01:46:16.787Z,3.90
2019-02-11T01:48:44.313Z,3.90
2019-02-11T01:51:11.817Z,3.90
2019-02-11T01:53:39.438Z,3.90
2019-02-11T01:56:06.979Z,3.80
2019-02-11T01:58:34.477Z,3.90
2019-02-11T02:01:02.211Z,3.90
2019-02-11T02:03:29.771Z,3.80
2019-02-11T02:05:57.279Z,3.80
2019-02-11T02:08:24.791Z,3.80
2019-02-11T02:10:52.320Z,3.80
2019-02-11T02:13:20.320Z,3.80
2019-02-11T02:15:47.760Z,3.80
2019-02-11T02:18:15.285Z,3.80
2019-02-11T02:20:42.895Z,3.80
2019-02-11T02:23:10.420Z,3.80
2019-02-11T02:25:38.033Z,3.80
2019-02-11T02:28:05.574Z,3.80
2019-02-11T02:30:33.223Z,3.80
2019-02-11T02:33:00.737Z,3.80
2019-02-11T02:35:28.711Z,3.80
2019-02-11T02:37:56.281Z,3.80
2019-02-11T02:40:23.856Z,3.80
2019-02-11T02:42:51.252Z,3.80
2019-02-11T02:45:18.779Z,3.80
2019-02-11T02:47:46.276Z,3.80
2019-02-11T02:50:13.815Z,3.80
2019-02-11T02:52:41.354Z,3.80
2019-02-11T02:55:09.128Z,3.80
2019-02-11T02:57:36.656Z,3.80
2019-02-11T03:00:06.274Z,3.80
2019-02-11T03:02:33.927Z,3.80
2019-02-11T03:05:01.419Z,3.80
2019-02-11T03:07:29.275Z,3.80
2019-02-11T03:09:56.804Z,3.80
2019-02-11T03:12:24.364Z,3.80
2019-02-11T03:14:51.828Z,3.80
2019-02-11T03:17:19.427Z,3.80
2019-02-11T03:19:46.966Z,3.80
2019-02-11T03:22:14.456Z,3.70
2019-02-11T03:24:42.047Z,3.70
2019-02-11T03:27:09.657Z,3.70
2019-02-11T03:29:37.442Z,3.70
2019-02-11T03:32:05.075Z,3.70
2019-02-11T03:34:32.647Z,3.60
2019-02-11T03:37:00.164Z,3.60
2019-02-11T03:39:27.926Z,3.50
2019-02-11T03:41:55.469Z,3.50
2019-02-11T03:44:23.066Z,3.40
2019-02-11T03:46:50.582Z,3.50
2019-02-11T03:49:18.426Z,3.50
2019-02-11T03:51:46.155Z,3.50
2019-02-11T03:54:13.711Z,3.50
2019-02-11T03:56:41.362Z,3.50
2019-02-11T03:59:09.085Z,3.50
2019-02-11T04:01:36.660Z,3.50
2019-02-11T04:04:04.194Z,3.40
2019-02-11T04:06:32.038Z,3.50
2019-02-11T04:08:59.568Z,3.50
2019-02-11T04:11:27.087Z,3.50
2019-02-11T04:13:54.600Z,3.50
2019-02-11T04:16:22.158Z,3.50
2019-02-11T04:18:49.687Z,3.50
2019-02-11T04:21:17.219Z,3.50
2019-02-11T04:23:44.713Z,3.50
2019-02-11T04:26:13.259Z,3.50
2019-02-11T04:28:40.820Z,3.50
2019-02-11T04:31:08.354Z,3.50
2019-02-11T04:33:35.885Z,3.50
2019-02-11T04:36:03.307Z,3.50
2019-02-11T04:38:30.831Z,3.50
2019-02-11T04:40:58.359Z,3.50
2019-02-11T04:43:26.109Z,3.50
2019-02-11T04:45:53.611Z,3.50
2019-02-11T04:48:21.124Z,3.50
2019-02-11T04:50:48.688Z,3.50
2019-02-11T04:53:16.520Z,3.50
2019-02-11T04:55:43.979Z,3.50
2019-02-11T04:58:11.527Z,3.50
2019-02-11T05:00:39.144Z,3.50
2019-02-11T05:03:07.738Z,3.40
2019-02-11T05:05:35.283Z,3.40
2019-02-11T05:08:02.820Z,3.40
2019-02-11T05:10:30.355Z,3.40
2019-02-11T05:12:57.870Z,3.40
2019-02-11T05:15:25.392Z,3.40
2019-02-11T05:17:53.043Z,3.40
2019-02-11T05:20:20.585Z,3.40
2019-02-11T05:22:48.136Z,3.40
2019-02-11T05:25:15.701Z,3.40
2019-02-11T05:27:43.357Z,3.40
2019-02-11T05:30:10.849Z,3.50
2019-02-11T05:32:38.816Z,3.50
2019-02-11T05:35:06.559Z,3.40
2019-02-11T05:37:34.198Z,3.40
2019-02-11T05:40:01.747Z,3.40
2019-02-11T05:42:29.508Z,3.40
2019-02-11T05:44:57.064Z,3.40
2019-02-11T05:47:24.695Z,3.40
2019-02-11T05:49:52.540Z,3.40
2019-02-11T05:52:20.059Z,3.40
2019-02-11T05:54:47.807Z,3.40
2019-02-11T05:57:15.301Z,3.40
2019-02-11T05:59:42.867Z,3.50
2019-02-11T06:02:10.383Z,3.50
2019-02-11T06:04:37.916Z,3.40
2019-02-11T06:07:05.406Z,3.40
2019-02-11T06:09:32.887Z,3.40
2019-02-11T06:12:00.386Z,3.40
2019-02-11T06:14:27.918Z,3.40
2019-02-11T06:16:55.427Z,3.50
2019-02-11T06:19:22.754Z,3.50
2019-02-11T06:21:50.286Z,3.50
2019-02-11T06:24:17.769Z,3.50
2019-02-11T06:26:45.303Z,3.50
2019-02-11T06:29:12.813Z,3.50
2019-02-11T06:31:40.228Z,3.50
2019-02-11T06:34:07.743Z,3.40
2019-02-11T06:36:35.173Z,3.40
2019-02-11T06:39:03.739Z,3.50
2019-02-11T06:41:31.762Z,3.40
2019-02-11T06:43:59.504Z,3.40
2019-02-11T06:46:27.124Z,3.40
2019-02-11T06:48:54.607Z,3.40
2019-02-11T06:51:22.116Z,3.40
2019-02-11T06:53:50.591Z,3.40
2019-02-11T06:56:18.054Z,3.40
2019-02-11T06:58:45.474Z,3.40
2019-02-11T07:01:12.775Z,3.40
2019-02-11T07:03:40.274Z,3.50
2019-02-11T07:06:07.761Z,3.50
2019-02-11T07:08:35.545Z,3.50
2019-02-11T07:11:03.396Z,3.50
2019-02-11T07:13:30.839Z,3.50
2019-02-11T07:15:58.285Z,3.40
2019-02-11T07:18:26.872Z,3.40
2019-02-11T07:20:54.398Z,3.40
2019-02-11T07:23:22.041Z,3.40
2019-02-11T07:25:49.496Z,3.40
2019-02-11T07:28:16.983Z,3.40
2019-02-11T07:30:44.432Z,3.40
2019-02-11T07:33:11.907Z,3.40
2019-02-11T07:35:39.341Z,3.50
2019-02-11T07:38:06.798Z,3.50
2019-02-11T07:40:34.355Z,3.50
2019-02-11T07:43:26.730Z,3.40
2019-02-11T07:46:19.814Z,3.50
2019-02-11T07:48:47.255Z,3.50
2019-02-11T07:51:14.714Z,3.50
2019-02-11T07:53:42.208Z,3.40
2019-02-11T07:56:09.533Z,3.50
2019-02-11T07:58:38.013Z,3.40
2019-02-11T08:01:05.875Z,3.50
2019-02-11T08:03:33.400Z,3.50
2019-02-11T08:06:00.903Z,3.50
2019-02-11T08:08:28.411Z,3.50
2019-02-11T08:10:55.896Z,3.50
2019-02-11T08:13:23.394Z,3.50
2019-02-11T08:15:50.890Z,3.60
2019-02-11T08:18:18.383Z,3.60
2019-02-11T08:20:45.860Z,3.60
2019-02-11T08:23:13.839Z,3.60
2019-02-11T08:25:41.436Z,3.60
2019-02-11T08:28:08.910Z,3.60
2019-02-11T08:30:36.287Z,3.60
2019-02-11T08:33:03.883Z,3.60
2019-02-11T08:35:31.518Z,3.60
2019-02-11T08:37:58.974Z,3.60
2019-02-11T08:40:26.467Z,3.60
2019-02-11T08:42:54.161Z,3.70
2019-02-11T08:45:21.653Z,3.70
2019-02-11T08:47:49.151Z,3.70
2019-02-11T08:50:16.653Z,3.70
2019-02-11T08:52:44.108Z,3.70
2019-02-11T08:55:11.753Z,3.70
2019-02-11T08:57:39.304Z,3.80
2019-02-11T09:00:06.664Z,3.70
2019-02-11T09:02:35.349Z,3.80
2019-02-11T09:05:02.873Z,3.80
2019-02-11T09:07:30.723Z,3.80
2019-02-11T09:09:59.351Z,3.90
2019-02-11T09:12:26.808Z,3.90
2019-02-11T09:14:54.245Z,3.90
2019-02-11T09:17:22.158Z,3.90
2019-02-11T09:19:49.634Z,3.90
2019-02-11T09:22:17.199Z,3.90
2019-02-11T09:24:45.389Z,3.90
2019-02-11T09:27:12.897Z,4.00
2019-02-11T09:29:40.475Z,4.00
2019-02-11T09:32:07.992Z,4.00
2019-02-11T09:34:35.510Z,4.00
2019-02-11T09:37:02.991Z,4.00
2019-02-11T09:39:30.323Z,4.00
2019-02-11T09:41:57.682Z,4.00
2019-02-11T09:44:29.625Z,4.10
2019-02-11T09:46:54.396Z,4.10
2019-02-11T09:49:21.920Z,4.10
2019-02-11T09:51:49.459Z,4.10
2019-02-11T09:54:17.144Z,4.10
2019-02-11T09:56:45.785Z,4.20
2019-02-11T09:59:13.318Z,4.20
2019-02-11T10:01:40.884Z,4.20
2019-02-11T10:04:08.396Z,4.20
2019-02-11T10:06:35.847Z,4.30
2019-02-11T10:09:04.266Z,4.40
2019-02-11T10:11:33.387Z,4.40
2019-02-11T10:14:00.853Z,4.50
2019-02-11T10:16:28.345Z,4.40
2019-02-11T10:18:56.067Z,4.50
2019-02-11T10:21:23.634Z,4.50
2019-02-11T10:23:50.960Z,4.50
2019-02-11T10:26:18.787Z,4.50
2019-02-11T10:28:47.415Z,4.60
2019-02-11T10:31:14.981Z,4.60
2019-02-11T10:33:42.875Z,4.70
2019-02-11T10:36:10.578Z,4.70
2019-02-11T10:38:38.015Z,4.80
2019-02-11T10:41:05.466Z,4.80
2019-02-11T10:43:32.990Z,4.80
2019-02-11T10:46:00.434Z,4.90
2019-02-11T10:48:28.104Z,4.90
2019-02-11T10:50:55.958Z,4.80
2019-02-11T10:53:23.444Z,4.80
2019-02-11T10:55:50.755Z,4.90
2019-02-11T10:58:18.635Z,4.80
2019-02-11T11:00:46.194Z,4.90
2019-02-11T11:03:13.710Z,4.90
2019-02-11T11:05:41.214Z,4.90
2019-02-11T11:08:09.026Z,4.90
2019-02-11T11:10:36.691Z,5.00
2019-02-11T11:13:04.292Z,4.90
2019-02-11T11:15:32.056Z,4.90
2019-02-11T11:17:59.972Z,4.90
2019-02-11T11:20:28.116Z,4.80
2019-02-11T11:22:55.569Z,4.80
2019-02-11T11:25:23.066Z,4.90
2019-02-11T11:27:50.526Z,4.90
2019-02-11T11:30:18.164Z,4.90
2019-02-11T11:32:45.924Z,5.00
2019-02-11T11:35:14.012Z,5.10
2019-02-11T11:37:41.523Z,5.10
2019-02-11T11:40:10.717Z,5.10
2019-02-11T11:42:38.444Z,5.00
2019-02-11T11:45:08.811Z,5.00
2019-02-11T11:47:36.413Z,5.00
2019-02-11T11:50:04.678Z,5.00
2019-02-11T11:52:32.266Z,4.90
2019-02-11T11:54:59.916Z,4.80
2019-02-11T11:57:30.286Z,4.80
2019-02-11T11:59:58.293Z,4.70
2019-02-11T12:02:25.679Z,4.80
2019-02-11T12:04:53.193Z,4.80
2019-02-11T12:07:20.685Z,4.80
2019-02-11T12:09:48.245Z,4.80
2019-02-11T12:12:15.720Z,4.90
2019-02-11T12:14:43.298Z,5.00
2019-02-11T12:17:10.811Z,5.00
2019-02-11T12:19:38.440Z,5.00
2019-02-11T12:22:05.796Z,5.00
2019-02-11T12:24:34.343Z,4.90
2019-02-11T12:27:01.698Z,4.90
2019-02-11T12:29:29.472Z,4.90
2019-02-11T12:31:57.449Z,4.80
2019-02-11T12:34:25.045Z,4.90
2019-02-11T12:36:53.271Z,4.90
2019-02-11T12:39:20.818Z,4.80
2019-02-11T12:41:48.388Z,4.70
2019-02-11T12:44:15.884Z,4.70
2019-02-11T12:46:43.464Z,4.70
2019-02-11T12:49:10.923Z,4.70
2019-02-11T12:51:38.389Z,4.60
2019-02-11T12:54:05.882Z,4.70
2019-02-11T12:56:33.459Z,4.70
2019-02-11T12:59:01.029Z,4.70
2019-02-11T13:01:28.464Z,4.70
2019-02-11T13:03:55.990Z,4.80
2019-02-11T13:06:23.636Z,4.80
2019-02-11T13:08:51.246Z,4.90
2019-02-11T13:11:18.888Z,4.90
2019-02-11T13:13:46.586Z,5.00
2019-02-11T13:16:14.123Z,5.00
2019-02-11T13:18:41.675Z,5.00
2019-02-11T13:21:09.370Z,5.00
2019-02-11T13:23:36.978Z,4.90
2019-02-11T13:26:04.414Z,4.90
2019-02-11T13:28:31.855Z,4.80
2019-02-11T13:30:59.322Z,4.70
2019-02-11T13:33:26.795Z,4.60
2019-02-11T13:35:54.276Z,4.50
2019-02-11T13:38:21.665Z,4.50
2019-02-11T13:40:49.257Z,4.60
2019-02-11T13:43:17.027Z,4.60
2019-02-11T13:45:44.557Z,4.60
2019-02-11T13:48:12.245Z,4.60
2019-02-11T13:50:40.268Z,4.60
2019-02-11T13:53:07.871Z,4.60
2019-02-11T13:55:35.397Z,4.70
2019-02-11T13:58:03.618Z,4.70
2019-02-11T14:00:31.967Z,4.70
2019-02-11T14:02:59.969Z,4.80
2019-02-11T14:05:27.738Z,4.70
2019-02-11T14:07:57.089Z,4.80
2019-02-11T14:10:24.706Z,4.80
2019-02-11T14:12:52.533Z,4.80
2019-02-11T14:15:21.389Z,4.80
2019-02-11T14:17:49.199Z,4.80
2019-02-11T14:20:19.830Z,4.80
2019-02-11T14:22:47.344Z,4.80
2019-02-11T14:25:14.743Z,4.90
2019-02-11T14:27:42.814Z,4.90
2019-02-11T14:30:11.189Z,4.90
2019-02-11T14:32:39.364Z,4.90
2019-02-11T14:35:07.106Z,4.90
2019-02-11T14:37:34.892Z,4.90
2019-02-11T14:40:02.710Z,4.90
2019-02-11T14:42:30.860Z,5.00
2019-02-11T14:44:58.847Z,5.00
2019-02-11T14:47:27.253Z,5.00
2019-02-11T14:49:54.922Z,5.00
2019-02-11T14:52:23.139Z,5.00
2019-02-11T14:54:50.887Z,5.00
2019-02-11T14:57:18.458Z,5.10
2019-02-11T14:59:46.003Z,5.10
2019-02-11T15:02:13.389Z,5.10
2019-02-11T15:04:41.044Z,5.10
2019-02-11T15:07:08.941Z,5.10
2019-02-11T15:09:36.409Z,5.10
2019-02-11T15:12:03.906Z,5.10
2019-02-11T15:14:31.456Z,5.00
2019-02-11T15:16:59.204Z,5.00
2019-02-11T15:19:26.695Z,5.00
2019-02-11T15:21:54.262Z,5.00
2019-02-11T15:24:21.802Z,5.10
2019-02-11T15:26:49.303Z,5.20
2019-02-11T15:29:16.825Z,5.10
2019-02-11T15:31:44.352Z,5.10
2019-02-11T15:34:12.557Z,5.20
2019-02-11T15:36:40.087Z,5.20
2019-02-11T15:39:09.308Z,5.20
2019-02-11T15:41:37.484Z,5.20
2019-02-11T15:44:05.904Z,5.20
2019-02-11T15:46:33.411Z,5.20
2019-02-11T15:49:00.873Z,5.20
2019-02-11T15:51:28.347Z,5.20
2019-02-11T15:53:56.322Z,5.20
2019-02-11T15:56:23.655Z,5.10
2019-02-11T15:58:51.271Z,5.10
2019-02-11T16:01:18.769Z,5.10
2019-02-11T16:03:46.267Z,5.10
2019-02-11T16:06:13.846Z,5.10
2019-02-11T16:08:41.497Z,5.10
2019-02-11T16:11:09.235Z,5.10
2019-02-11T16:13:36.737Z,5.10
2019-02-11T16:16:04.307Z,5.10
2019-02-11T16:18:31.679Z,5.00
2019-02-11T16:20:59.016Z,5.00
2019-02-11T16:23:26.588Z,4.90
2019-02-11T16:25:54.117Z,4.80
2019-02-11T16:28:21.506Z,4.90
2019-02-11T16:30:48.984Z,4.80
2019-02-11T16:33:16.343Z,4.80
2019-02-11T16:35:43.812Z,4.80
2019-02-11T16:38:11.255Z,4.70
2019-02-11T16:40:38.569Z,4.70
2019-02-11T16:43:06.030Z,4.70
2019-02-11T16:45:33.415Z,4.70
2019-02-11T16:48:00.851Z,4.70
2019-02-11T16:50:28.195Z,4.60
2019-02-11T16:52:55.673Z,4.60
2019-02-11T16:55:23.146Z,4.60
2019-02-11T16:57:50.710Z,4.60
2019-02-11T17:00:18.423Z,4.60
2019-02-11T17:02:48.777Z,4.60
2019-02-11T17:05:20.113Z,4.60
2019-02-11T17:07:47.753Z,4.60
2019-02-11T17:10:15.216Z,4.60
2019-02-11T17:12:42.712Z,4.50
2019-02-11T17:15:11.987Z,4.50
2019-02-11T17:17:39.531Z,4.50
2019-02-11T17:20:08.149Z,4.50
2019-02-11T17:22:35.667Z,4.50
2019-02-11T17:25:03.455Z,4.50
2019-02-11T17:27:31.267Z,4.50
2019-02-11T17:29:58.793Z,4.50
2019-02-11T17:32:27.347Z,4.50
2019-02-11T17:34:55.003Z,4.50
2019-02-11T17:37:22.611Z,4.50
2019-02-11T17:39:49.972Z,4.50
2019-02-11T17:42:17.433Z,4.50
2019-02-11T17:44:44.831Z,4.50
2019-02-11T17:47:12.294Z,4.50
2019-02-11T17:49:40.692Z,4.50
2019-02-11T17:52:09.662Z,4.50
2019-02-11T17:54:37.336Z,4.40
2019-02-11T17:57:04.827Z,4.40
2019-02-11T17:59:32.280Z,4.50
2019-02-11T18:02:00.094Z,4.40
2019-02-11T18:04:27.520Z,4.40
2019-02-11T18:06:55.373Z,4.40
2019-02-11T18:09:23.202Z,4.40
2019-02-11T18:11:50.569Z,4.40
2019-02-11T18:14:18.026Z,4.40
2019-02-11T18:16:45.481Z,4.40
2019-02-11T18:19:12.913Z,4.40
2019-02-11T18:21:40.335Z,4.40
2019-02-11T18:24:07.888Z,4.40
2019-02-11T18:26:35.785Z,4.40
2019-02-11T18:29:03.519Z,4.40
2019-02-11T18:31:31.376Z,4.30
2019-02-11T18:33:58.851Z,4.30
2019-02-11T18:36:26.355Z,4.30
2019-02-11T18:38:54.977Z,4.30
2019-02-11T18:41:22.338Z,4.30
2019-02-11T18:43:49.778Z,4.40
2019-02-11T18:46:17.346Z,4.30
2019-02-11T18:48:44.926Z,4.30
2019-02-11T18:51:12.448Z,4.30
2019-02-11T18:53:39.927Z,4.30
2019-02-11T18:56:07.457Z,4.30
2019-02-11T18:58:34.975Z,4.30
2019-02-11T19:01:02.455Z,4.30
2019-02-11T19:03:29.888Z,4.30
2019-02-11T19:05:57.326Z,4.30
2019-02-11T19:08:24.903Z,4.30
2019-02-11T19:10:52.421Z,4.30
2019-02-11T19:13:19.723Z,4.30
2019-02-11T19:15:47.767Z,4.20
2019-02-11T19:18:15.497Z,4.30
2019-02-11T19:20:42.953Z,4.30
2019-02-11T19:23:10.444Z,4.30
2019-02-11T19:25:37.976Z,4.30
2019-02-11T19:28:05.777Z,4.20
2019-02-11T19:30:33.606Z,4.30
2019-02-11T19:33:01.081Z,4.30
2019-02-11T19:35:28.550Z,4.20
2019-02-11T19:37:56.025Z,4.20
2019-02-11T19:40:23.467Z,4.20
2019-02-11T19:42:50.923Z,4.20
2019-02-11T19:45:18.708Z,4.20
2019-02-11T19:47:46.511Z,4.30
2019-02-11T19:50:14.647Z,4.20
2019-02-11T19:52:42.241Z,4.30
2019-02-11T19:55:10.806Z,4.20
2019-02-11T19:57:38.569Z,4.20
2019-02-11T20:00:09.436Z,4.20
2019-02-11T20:02:36.872Z,4.30
2019-02-11T20:05:04.663Z,4.30
2019-02-11T20:07:32.124Z,4.30
2019-02-11T20:09:59.577Z,4.20
2019-02-11T20:12:27.061Z,4.20
2019-02-11T20:14:54.544Z,4.30
2019-02-11T20:17:22.056Z,4.30
2019-02-11T20:19:49.942Z,4.30
2019-02-11T20:22:17.436Z,4.30
2019-02-11T20:24:45.230Z,4.30
2019-02-11T20:27:12.691Z,4.30
2019-02-11T20:29:40.150Z,4.30
2019-02-11T20:32:07.645Z,4.20
2019-02-11T20:34:35.147Z,4.20
2019-02-11T20:37:02.571Z,4.20
2019-02-11T20:39:30.044Z,4.10
2019-02-11T20:41:57.516Z,4.10
2019-02-11T20:44:25.244Z,4.10
2019-02-11T20:46:52.602Z,4.10
2019-02-11T20:49:20.075Z,4.00
2019-02-11T20:51:47.822Z,3.90
2019-02-11T20:54:15.159Z,3.90
2019-02-11T20:56:42.854Z,4.00
2019-02-11T20:59:10.727Z,3.80
2019-02-11T21:01:38.215Z,3.80
2019-02-11T21:04:05.682Z,3.80
2019-02-11T21:06:34.114Z,3.70
2019-02-11T21:09:01.609Z,3.60
2019-02-11T21:11:31.080Z,3.70
2019-02-11T21:13:58.379Z,3.70
2019-02-11T21:16:25.861Z,3.60
2019-02-11T21:18:53.507Z,3.50
2019-02-11T21:21:21.081Z,3.60
2019-02-11T21:23:48.559Z,3.60
2019-02-11T21:26:17.120Z,3.60
2019-02-11T21:28:44.480Z,3.60
2019-02-11T21:31:11.904Z,3.50
2019-02-11T21:33:39.704Z,3.50
2019-02-11T21:36:07.072Z,3.50
2019-02-11T21:38:34.533Z,3.50
2019-02-11T21:41:01.975Z,3.50
2019-02-11T21:43:29.473Z,3.50
2019-02-11T21:45:57.018Z,3.40
2019-02-11T21:48:24.858Z,3.40
2019-02-11T21:50:52.319Z,3.30
2019-02-11T21:53:20.153Z,3.30
2019-02-11T21:55:47.898Z,3.30
2019-02-11T21:58:15.669Z,3.30
2019-02-11T22:00:43.130Z,3.30
2019-02-11T22:03:10.703Z,3.20
2019-02-11T22:05:38.397Z,3.20
2019-02-11T22:08:06.226Z,3.20
2019-02-11T22:10:33.709Z,3.20
2019-02-11T22:13:01.211Z,3.10
2019-02-11T22:15:28.712Z,3.00
2019-02-11T22:17:56.240Z,3.00
2019-02-11T22:20:24.764Z,3.00
2019-02-11T22:22:52.254Z,3.00
2019-02-11T22:25:19.791Z,2.90
2019-02-11T22:27:47.344Z,2.80
2019-02-11T22:30:16.919Z,2.80
2019-02-11T22:32:44.389Z,2.70
2019-02-11T22:35:12.757Z,2.60
2019-02-11T22:37:40.377Z,2.60
2019-02-11T22:40:08.418Z,2.50
2019-02-11T22:42:35.993Z,2.50
2019-02-11T22:45:03.599Z,2.40
2019-02-11T22:47:30.934Z,2.30
2019-02-11T22:49:58.474Z,2.30
2019-02-11T22:52:25.940Z,2.20
2019-02-11T22:54:53.407Z,2.10
2019-02-11T22:57:20.947Z,2.10
2019-02-11T22:59:48.334Z,2.00
2019-02-11T23:02:15.831Z,2.00
2019-02-11T23:04:43.229Z,1.90
2019-02-11T23:07:11.143Z,1.90
2019-02-11T23:09:38.633Z,1.90
2019-02-11T23:12:06.111Z,1.90
2019-02-11T23:14:33.623Z,1.80
2019-02-11T23:17:01.101Z,1.80
2019-02-11T23:19:28.611Z,1.70
2019-02-11T23:21:56.072Z,1.70
2019-02-11T23:24:23.549Z,1.70
2019-02-11T23:26:51.054Z,1.70
2019-02-11T23:29:19.071Z,1.60
2019-02-11T23:31:46.543Z,1.60
2019-02-11T23:34:14.049Z,1.60
2019-02-11T23:36:41.918Z,1.60
2019-02-11T23:39:13.985Z,1.60
2019-02-11T23:41:41.573Z,1.60
2019-02-11T23:44:09.186Z,1.60
2019-02-11T23:46:36.617Z,1.60
2019-02-11T23:51:23.964Z,1.50
2019-02-11T23:53:51.408Z,1.60
2019-02-11T23:56:18.951Z,1.60
2019-02-11T23:58:46.475Z,1.60
